Aeroporto :
LOGIN :

Iscrizione | Disclaimer

   EN    FR    IT 

 










Sommario :    VFR   VFR Marginale   IFR   IFR Intensivo   IFR Molto Intensivo
Visibilità : 
Base nubi : 
>= 8 km
>= 3000ft
5 / 8 km
1000 / 3000 ft
1500m / 5 km
500 / 1000 ft
800 / 1500m
200 / 500 ft
< 800m
< 200 ft
Simboli :   Temporali  Nebbia  Neve Forte  Precipitazioni Forti  Vento > 20 kt
SIGMETs :   Varie  Temporali  Ghiacco  Turbolenza  Onda orograficha  Ceneri Vulcaniche






- Altitudine del aeroporto : 665 ft
- Codice IATA : NOC


EIKN - Connaught / Knock- Ireland West

METAR N/A
TAF TAF EIKN
Valido dal 15 a 12 ore il 16 a 12 ore UTC


151100Z 1512/1612 15014KT 9999 FEW005 SCT015 BKN025
BECMG 1512/1514 BKN010
TEMPO 1512/1516 16015G25KT
TEMPO 1513/1516 4000 -RA BKN005
BECMG 1516/1518 17017G29KT
BECMG 1516/1518 4000 -RA BKN005
TEMPO 1518/1521 2000 RA BKN002
TEMPO 1521/1524 0800 FG BKN001
BECMG 1522/1524 25013KT
BECMG 1600/1602 9999 NSW BKN010
BECMG 1602/1604 BKN020
BECMG 1604/1606 27015G25KT



MetMap, La meteo Aeronautica in un colpo d'occhio ! - Copyright ORBIFLY Dicembre 2007 - Disclaimer

ORBIFLY MET'MAP TEAM :

Programmazione e sviluppo : Alexandra Zaïnal
Concezione : Baudouin d'Aumeries
Aiuto per la programmazione : Marc-Olivier Méhu
Supporto tecnico e logistico : Manuel Goepfert
Aiuto per la traduzione : Arnaldo La Scala

Contatto : metmap@orbifly.com




FONTI E CREDITI :

   NOAA